Berwind, WV

3:40 PM EDT on September 28, 2016 (GMT -0400)
RAWS | | Change Station

Elev 2100 ft 37.40 °N, 81.54 °W | Updated 1 hour ago

Clear
Clear
80.0 °F
Feels Like 80.0 °F
N
6.0
Wind Variable Wind from SSW
Gusts 15.0 mph

Today
High -- | Low -- °F
--% Chance of Precip.
Yesterday
High -- | Low -- °F
Precip. -- in
Pressure 29.96 in
Visibility 10.0 miles
Clouds Clear
Dew Point 38.0 °F
Humidity 22%
Rainfall in
Snow Depth Not available.
7:20 AM 7:13 PM
Waning Crescent, 5% visible
METAR KJFZ 281915Z AUTO 22009G17KT 10SM CLR 24/08 A2996 RMK AO2 T02370076
Pressure 29.96 in
Visibility 10.0 miles
Clouds Clear
Dew Point 38.0 °F
Humidity 22%
Rainfall in
Snow Depth Not available.
7:20 AM 7:13 PM
Waning Crescent, 5% visible
METAR KJFZ 281915Z AUTO 22009G17KT 10SM CLR 24/08 A2996 RMK AO2 T02370076

10-Day Weather Forecast

Almanac

Astronomy

Sep. 28, 2016 Rise Set
Actual Time
Civil Twilight
Nautical Twilight
Astronomical Twilight
Moon
Length of Visible Light
Length of Day
Tomorrow will be .
, % of the Moon is Illuminated

Today's Extremes

State Highs State Lows

Community

WunderPhotos

Upload Photos

1,942,311 photos uploaded!

WunderBlog® & News

Nearby

Air Quality

  Air Quality AQ Index Pollutant
Not available.

Snow Depth

Station Depth Elevation

Earthquake Activity

City Distance Mag. Time & Date
Minimum magnitude displayed is 2.5.

Coastal Water Temperatures

Place Temperature

Stations

Nearby Weather Stations

Station Location Temp. Windchill Dew Point Humidity Wind Precip. Elev Updated Type
                   

Watches & Warnings

There are currently no watches in effect.